Time;durP1;ratioP1;P1;durP2;ratioP2;P2;SDS_P1;SDS_P2;PMS_P1;PMS_P2;Temp;Humidity;BMP_temperature;BMP_pressure;BME280_temperature;BME280_humidity;BME280_pressure;Samples;Min_cycle;Max_cycle;Signal;HPM_P1;HPM_P2
2021/08/05 00:00:51;;;;;;;;;3.25;2.75;;;;;24.64;44.66;100772.03;5036932;28;51050;-56
2021/08/05 00:03:16;;;;;;;;;5.00;5.00;;;;;24.63;44.37;100762.03;5036119;28;51062;-56
2021/08/05 00:05:41;;;;;;;;;3.50;3.00;;;;;24.63;44.73;100770.34;5036521;28;51046;-56
2021/08/05 00:08:07;;;;;;;;;1.50;1.50;;;;;24.63;44.47;100768.41;5036646;28;51293;-56
2021/08/05 00:10:33;;;;;;;;;2.25;2.00;;;;;24.63;44.45;100760.09;5036656;28;51015;-54
2021/08/05 00:12:59;;;;;;;;;4.75;2.25;;;;;24.64;44.25;100761.78;5035901;28;52093;-54
2021/08/05 00:15:24;;;;;;;;;4.00;3.00;;;;;24.63;44.29;100750.97;5036345;28;51499;-56
2021/08/05 00:17:50;;;;;;;;;3.00;3.00;;;;;24.63;44.49;100745.41;5036464;28;51038;-55
2021/08/05 00:20:15;;;;;;;;;2.00;2.00;;;;;24.63;44.35;100746.25;5035092;28;51844;-55
2021/08/05 00:22:41;;;;;;;;;2.25;2.25;;;;;24.62;44.44;100750.13;5036120;28;51875;-55
2021/08/05 00:25:07;;;;;;;;;3.00;3.00;;;;;24.62;44.42;100732.66;5036268;28;51044;-55
2021/08/05 00:27:32;;;;;;;;;3.00;3.00;;;;;24.62;44.54;100743.75;5035788;28;51100;-55
2021/08/05 00:29:57;;;;;;;;;3.00;3.00;;;;;24.62;44.65;100736.28;5035671;28;51258;-55
2021/08/05 00:32:23;;;;;;;;;4.25;3.00;;;;;24.63;44.49;100742.66;5036066;28;51827;-55
2021/08/05 00:34:48;;;;;;;;;1.00;1.00;;;;;24.62;44.39;100747.34;5035860;28;51036;-56
2021/08/05 00:37:14;;;;;;;;;3.00;3.00;;;;;24.62;44.35;100729.91;5036315;28;51200;-55
2021/08/05 00:39:39;;;;;;;;;2.50;2.50;;;;;24.62;44.43;100727.13;5036008;28;51082;-56
2021/08/05 00:42:05;;;;;;;;;4.75;3.00;;;;;24.62;44.33;100736.28;5035936;28;52189;-54
2021/08/05 00:44:30;;;;;;;;;2.50;2.50;;;;;24.62;44.43;100727.97;5035783;28;51141;-55
2021/08/05 00:46:56;;;;;;;;;3.25;3.25;;;;;24.61;44.45;100729.06;5035975;28;51055;-54
2021/08/05 00:49:21;;;;;;;;;3.00;3.00;;;;;24.62;44.06;100732.66;5035913;28;51094;-55
2021/08/05 00:51:47;;;;;;;;;3.25;3.25;;;;;24.61;44.24;100729.06;5035508;28;51025;-56
2021/08/05 00:54:12;;;;;;;;;3.50;3.50;;;;;24.61;44.69;100734.59;5035966;28;51079;-55
2021/08/05 00:56:37;;;;;;;;;5.00;3.00;;;;;24.62;44.87;100732.66;5035657;28;51154;-54
2021/08/05 00:59:03;;;;;;;;;4.75;3.75;;;;;24.60;44.47;100727.38;5036271;28;51321;-54
2021/08/05 01:01:37;;;;;;;;;5.00;4.00;;;;;24.61;44.40;100729.06;5033972;28;52607;-56
2021/08/05 01:04:04;;;;;;;;;6.25;4.25;;;;;24.62;44.37;100727.13;5035586;28;50952;-54
2021/08/05 01:06:47;;;;;;;;;3.75;2.00;;;;;24.60;44.60;100721.84;5035663;28;51165;-54
2021/08/05 01:09:27;;;;;;;;;4.25;4.25;;;;;24.61;44.38;100722.69;5035757;28;50974;-56
2021/08/05 01:12:26;;;;;;;;;5.75;2.50;;;;;24.60;44.28;100719.06;5035234;28;51983;-57
2021/08/05 01:15:09;;;;;;;;;7.25;6.25;;;;;24.59;44.60;100714.59;5031709;28;51114;-54
2021/08/05 01:17:38;;;;;;;;;5.50;4.50;;;;;24.59;44.47;100706.28;5035419;28;51149;-53
2021/08/05 01:20:05;;;;;;;;;8.25;6.25;;;;;24.60;44.53;100713.53;5035342;28;50978;-55
2021/08/05 01:22:44;;;;;;;;;8.75;7.00;;;;;24.60;44.55;100709.94;5035430;28;51058;-57
2021/08/05 01:25:17;;;;;;;;;8.00;5.50;;;;;24.58;44.48;100707.38;5035575;28;51109;-56
2021/08/05 01:27:44;;;;;;;;;11.75;10.00;;;;;24.58;44.39;100710.16;5035053;28;51186;-56
2021/08/05 01:30:10;;;;;;;;;9.50;7.25;;;;;24.59;44.57;100709.06;5035787;28;51267;-54
2021/08/05 01:32:37;;;;;;;;;11.25;9.50;;;;;24.59;44.24;100709.06;5035303;28;50985;-55
2021/08/05 01:35:03;;;;;;;;;10.75;9.25;;;;;24.59;44.54;100714.59;5035318;28;51429;-54
2021/08/05 01:37:29;;;;;;;;;12.25;10.25;;;;;24.57;44.62;100705.72;5035467;28;51183;-55
2021/08/05 01:39:56;;;;;;;;;13.00;11.50;;;;;24.59;44.34;100719.31;5035273;28;51016;-55
2021/08/05 01:42:22;;;;;;;;;8.50;8.50;;;;;24.59;44.60;100713.75;5036836;28;51786;-55
2021/08/05 01:44:52;;;;;;;;;18.75;15.75;;;;;24.58;44.37;100704.63;5038706;28;51193;-54
2021/08/05 01:47:20;;;;;;;;;13.50;12.50;;;;;24.59;44.31;100705.44;5038588;28;51133;-55
2021/08/05 01:49:47;;;;;;;;;16.25;13.75;;;;;24.58;44.41;100706.56;5038623;28;51329;-55
2021/08/05 01:52:12;;;;;;;;;11.75;7.75;;;;;24.59;44.49;100700.75;5038140;28;52835;-55
2021/08/05 01:54:39;;;;;;;;;15.00;13.00;;;;;24.59;44.22;100695.22;5038449;28;51184;-56
2021/08/05 01:57:05;;;;;;;;;20.75;16.75;;;;;24.59;44.49;100686.06;5038206;28;51239;-54
2021/08/05 01:59:30;;;;;;;;;14.75;14.75;;;;;24.59;44.49;100686.91;5038624;28;51328;-56
2021/08/05 02:01:56;;;;;;;;;19.00;15.00;;;;;24.58;44.27;100676.94;5038212;28;51898;-56
2021/08/05 02:04:34;;;;;;;;;16.25;14.00;;;;;24.58;44.31;100679.69;5038063;28;51061;-56
2021/08/05 02:07:08;;;;;;;;;17.00;16.00;;;;;24.58;44.38;100685.22;5038396;28;51151;-55
2021/08/05 02:09:46;;;;;;;;;17.75;15.25;;;;;24.57;44.53;100680.78;5038435;28;50995;-54
2021/08/05 02:12:11;;;;;;;;;16.00;14.00;;;;;24.57;44.50;100678.03;5037677;28;52890;-56
2021/08/05 02:14:38;;;;;;;;;16.00;12.75;;;;;24.58;44.64;100681.63;5038274;28;51144;-56
2021/08/05 02:17:07;;;;;;;;;17.25;14.50;;;;;24.58;44.53;100671.38;5038450;28;51093;-56
2021/08/05 02:19:33;;;;;;;;;18.00;13.75;;;;;24.58;44.48;100671.38;5038060;28;51288;-55
2021/08/05 02:22:00;;;;;;;;;21.25;17.50;;;;;24.58;44.75;100673.31;5037853;28;52056;-55
2021/08/05 02:24:30;;;;;;;;;14.00;12.25;;;;;24.57;44.45;100669.72;5037798;28;51345;-56
2021/08/05 02:26:57;;;;;;;;;14.50;12.75;;;;;24.56;44.48;100670.81;5037612;28;51166;-56
2021/08/05 02:29:25;;;;;;;;;20.00;15.75;;;;;24.57;44.19;100666.94;5038214;28;51075;-56
2021/08/05 02:31:51;;;;;;;;;16.50;16.00;;;;;24.57;44.51;100666.09;5037938;28;51013;-56
2021/08/05 02:34:19;;;;;;;;;17.50;17.50;;;;;24.57;44.01;100660.56;5037842;28;51072;-55
2021/08/05 02:36:44;;;;;;;;;15.50;13.25;;;;;24.57;44.31;100658.63;5037900;28;51052;-54
2021/08/05 02:39:10;;;;;;;;;22.50;16.50;;;;;24.57;44.60;100661.41;5038096;28;51034;-54
2021/08/05 02:41:35;;;;;;;;;17.00;14.50;;;;;24.57;44.32;100657.78;5037516;28;51108;-56
2021/08/05 02:44:02;;;;;;;;;22.50;16.25;;;;;24.57;44.41;100657.78;5036732;28;51763;-56
2021/08/05 02:46:29;;;;;;;;;16.75;14.50;;;;;24.57;44.44;100660.56;5037761;28;51026;-55
2021/08/05 02:48:56;;;;;;;;;14.50;12.50;;;;;24.55;44.52;100658.06;5037940;28;51050;-55
2021/08/05 02:51:22;;;;;;;;;17.25;14.50;;;;;24.56;44.66;100656.97;5037361;28;51089;-53
2021/08/05 02:53:50;;;;;;;;;17.25;16.25;;;;;24.57;44.49;100657.78;5037564;28;51447;-57
2021/08/05 02:56:16;;;;;;;;;16.50;14.50;;;;;24.56;44.70;100653.34;5037615;28;51122;-57
2021/08/05 02:58:41;;;;;;;;;15.75;13.50;;;;;24.56;44.42;100651.44;5037725;28;51173;-55
2021/08/05 03:01:07;;;;;;;;;17.50;15.00;;;;;24.56;44.73;100653.34;5037259;28;51234;-55
2021/08/05 03:03:33;;;;;;;;;13.50;13.25;;;;;24.56;44.65;100656.13;5037145;28;51028;-56
2021/08/05 03:05:59;;;;;;;;;15.50;13.50;;;;;24.55;44.13;100649.75;5037430;28;50991;-57
2021/08/05 03:08:24;;;;;;;;;17.75;14.50;;;;;24.56;44.40;100647.81;5037533;28;51041;-54
2021/08/05 03:10:49;;;;;;;;;18.00;15.25;;;;;24.56;44.31;100645.06;5037227;28;50951;-55
2021/08/05 03:13:15;;;;;;;;;16.25;11.00;;;;;24.56;44.29;100647.81;5037405;28;51303;-53
2021/08/05 03:15:41;;;;;;;;;18.25;14.00;;;;;24.55;44.28;100641.44;5037193;28;50958;-54
2021/08/05 03:18:06;;;;;;;;;14.00;11.00;;;;;24.55;44.54;100644.22;5037318;28;51128;-54
2021/08/05 03:20:32;;;;;;;;;16.50;15.25;;;;;24.55;44.63;100641.44;5036781;28;52540;-54
2021/08/05 03:22:59;;;;;;;;;13.75;12.75;;;;;24.55;44.48;100637.84;5037216;28;50917;-53
2021/08/05 03:25:24;;;;;;;;;16.00;12.75;;;;;24.55;44.55;100638.66;5037170;28;51118;-55
2021/08/05 03:27:50;;;;;;;;;16.25;14.75;;;;;24.54;44.56;100631.47;5036741;28;51093;-53
2021/08/05 03:30:15;;;;;;;;;14.50;12.00;;;;;24.55;44.55;100635.06;5036637;28;62734;-53
2021/08/05 03:32:40;;;;;;;;;17.00;14.75;;;;;24.55;44.74;100635.06;5036925;28;50928;-56
2021/08/05 03:35:06;;;;;;;;;14.00;11.25;;;;;24.55;44.51;100635.91;5037153;28;51030;-56
2021/08/05 03:37:31;;;;;;;;;15.25;13.00;;;;;24.55;44.77;100630.38;5037249;28;51091;-55
2021/08/05 03:39:57;;;;;;;;;13.50;12.50;;;;;24.54;44.70;100614.84;5036729;28;51218;-55
2021/08/05 03:42:22;;;;;;;;;11.25;10.75;;;;;24.55;44.59;100610.16;5036932;28;51127;-55
2021/08/05 03:44:47;;;;;;;;;13.75;10.75;;;;;24.54;44.48;100614.84;5036970;28;51070;-56
2021/08/05 03:47:13;;;;;;;;;15.00;12.25;;;;;24.55;44.87;100618.44;5036972;28;51117;-55
2021/08/05 03:49:38;;;;;;;;;11.75;11.75;;;;;24.55;44.70;100627.59;5036206;28;59693;-54
2021/08/05 03:52:03;;;;;;;;;15.00;11.00;;;;;24.53;44.60;100621.47;5036587;28;50998;-53
2021/08/05 03:54:29;;;;;;;;;15.25;12.25;;;;;24.54;44.68;100625.09;5036992;28;51259;-55
2021/08/05 03:56:54;;;;;;;;;10.75;10.50;;;;;24.54;44.58;100628.69;5036787;28;50908;-55
2021/08/05 03:59:19;;;;;;;;;16.50;14.50;;;;;24.53;44.97;100627.03;5036516;28;50934;-55
2021/08/05 04:01:45;;;;;;;;;13.25;12.00;;;;;24.54;44.75;100627.84;5036624;28;50951;-53
2021/08/05 04:04:10;;;;;;;;;12.00;11.50;;;;;24.53;44.71;100618.72;5035652;28;51055;-55
2021/08/05 04:06:36;;;;;;;;;13.25;10.25;;;;;24.54;44.55;100623.16;5036681;28;50927;-56
2021/08/05 04:09:01;;;;;;;;;11.00;9.75;;;;;24.54;44.83;100608.47;5036137;28;50996;-53
2021/08/05 04:11:26;;;;;;;;;11.25;10.75;;;;;24.54;44.59;100602.94;5036208;28;51003;-54
2021/08/05 04:13:51;;;;;;;;;12.25;10.50;;;;;24.53;44.71;100602.09;5036123;28;50979;-52
2021/08/05 04:16:17;;;;;;;;;15.25;12.00;;;;;24.53;44.66;100606.81;5036440;28;50920;-53
2021/08/05 04:18:42;;;;;;;;;14.00;11.00;;;;;24.54;44.76;100614.00;5035675;28;50937;-55
2021/08/05 04:21:07;;;;;;;;;15.25;12.50;;;;;24.54;44.42;100620.38;5036294;28;51470;-55
2021/08/05 04:23:35;;;;;;;;;15.00;14.00;;;;;24.53;44.74;100613.16;5036044;28;51680;-55
2021/08/05 04:26:00;;;;;;;;;13.50;11.75;;;;;24.54;44.73;100611.25;5035932;28;51009;-55
2021/08/05 04:28:25;;;;;;;;;13.25;12.00;;;;;24.54;44.48;100617.63;5035740;28;51972;-55
2021/08/05 04:30:52;;;;;;;;;9.50;8.75;;;;;24.53;44.65;100610.41;5036279;28;50963;-55
2021/08/05 04:33:19;;;;;;;;;12.50;11.25;;;;;24.54;44.89;100616.78;5035774;28;51231;-53
2021/08/05 04:35:44;;;;;;;;;15.75;13.25;;;;;24.53;44.67;100609.56;5036144;28;50986;-56
2021/08/05 04:38:10;;;;;;;;;15.50;10.75;;;;;24.53;44.64;100618.72;5035726;28;51713;-54
2021/08/05 04:40:36;;;;;;;;;14.00;12.25;;;;;24.53;44.42;100620.66;5035935;28;51279;-56
2021/08/05 04:43:02;;;;;;;;;17.00;13.50;;;;;24.53;44.85;100618.72;5035719;28;50991;-55
2021/08/05 04:45:27;;;;;;;;;16.00;14.00;;;;;24.53;44.61;100617.88;5036333;28;50988;-55
2021/08/05 04:48:01;;;;;;;;;14.75;13.50;;;;;24.52;44.89;100605.97;5035513;28;51875;-54
2021/08/05 04:50:30;;;;;;;;;15.50;14.00;;;;;24.53;44.80;100610.41;5036020;28;51183;-56
2021/08/05 04:52:57;;;;;;;;;11.25;10.00;;;;;24.52;44.60;100605.97;5036002;28;51050;-56
2021/08/05 04:55:23;;;;;;;;;11.25;10.75;;;;;24.52;44.49;100610.66;5035857;28;51315;-55
2021/08/05 04:57:57;;;;;;;;;10.25;10.00;;;;;24.52;44.56;100614.28;5035341;28;51104;-56
2021/08/05 05:00:34;;;;;;;;;12.75;11.75;;;;;24.52;44.65;100621.75;5035761;28;51343;-54
2021/08/05 05:03:01;;;;;;;;;12.50;12.00;;;;;24.52;44.83;100628.13;5035434;28;51069;-56
2021/08/05 05:05:27;;;;;;;;;14.00;11.50;;;;;24.52;44.66;100635.59;5035796;28;51252;-55
2021/08/05 05:07:53;;;;;;;;;14.00;11.75;;;;;24.52;44.68;100635.59;5035381;28;51155;-55
2021/08/05 05:10:19;;;;;;;;;15.75;13.25;;;;;24.52;44.65;100630.88;5035633;28;51097;-54
2021/08/05 05:12:44;;;;;;;;;12.50;11.00;;;;;24.51;44.53;100637.53;5035514;28;51080;-52
2021/08/05 05:15:11;;;;;;;;;15.25;10.50;;;;;24.52;44.49;100643.91;5036019;28;50943;-54
2021/08/05 05:17:38;;;;;;;;;12.75;10.25;;;;;24.51;44.79;100634.75;5038638;28;51285;-56
2021/08/05 05:20:05;;;;;;;;;12.75;10.75;;;;;24.51;44.84;100629.22;5038602;28;51301;-56
2021/08/05 05:22:30;;;;;;;;;12.50;9.75;;;;;24.52;44.75;100632.81;5039121;28;51522;-56
2021/08/05 05:24:55;;;;;;;;;16.75;12.00;;;;;24.51;44.82;100634.75;5039210;28;51124;-55
2021/08/05 05:27:21;;;;;;;;;12.75;8.00;;;;;24.51;44.72;100634.75;5038341;28;52153;-56
2021/08/05 05:29:46;;;;;;;;;15.25;11.00;;;;;24.52;44.45;100632.81;5038839;28;51006;-54
2021/08/05 05:32:12;;;;;;;;;11.25;10.00;;;;;24.50;44.88;100641.38;5039108;28;51011;-54
2021/08/05 05:34:37;;;;;;;;;9.50;9.25;;;;;24.51;44.49;100633.91;5037413;28;50971;-56
2021/08/05 05:37:03;;;;;;;;;11.75;11.25;;;;;24.49;44.68;100631.41;5038524;28;50952;-55
2021/08/05 05:39:28;;;;;;;;;16.25;10.00;;;;;24.50;44.92;100630.31;5038597;28;51180;-56
2021/08/05 05:41:54;;;;;;;;;12.50;9.50;;;;;24.50;44.85;100626.69;5038678;28;51033;-56
2021/08/05 05:44:19;;;;;;;;;12.00;12.00;;;;;24.50;45.12;100633.06;5039004;28;51218;-55
2021/08/05 05:46:45;;;;;;;;;10.50;9.50;;;;;24.49;45.14;100636.94;5038150;28;51844;-54
2021/08/05 05:49:11;;;;;;;;;12.75;12.75;;;;;24.50;45.00;100637.78;5038403;28;51181;-54
2021/08/05 05:51:36;;;;;;;;;10.75;8.50;;;;;24.49;44.68;100636.94;5038424;28;51265;-54
2021/08/05 05:54:02;;;;;;;;;10.75;10.00;;;;;24.48;44.67;100640.78;5038688;28;51187;-55
2021/08/05 05:56:27;;;;;;;;;11.75;8.75;;;;;24.49;44.97;100639.72;5038065;28;51064;-55
2021/08/05 05:58:52;;;;;;;;;10.00;9.25;;;;;24.48;44.97;100638.84;5038340;28;51065;-53
2021/08/05 06:01:17;;;;;;;;;10.25;8.75;;;;;24.49;44.54;100650.78;5038576;28;50979;-54
2021/08/05 06:03:43;;;;;;;;;10.50;9.50;;;;;24.49;44.97;100645.25;5038256;28;51131;-55
2021/08/05 06:06:08;;;;;;;;;9.25;6.75;;;;;24.50;44.71;100649.69;5037761;28;60160;-55
2021/08/05 06:08:33;;;;;;;;;7.00;6.75;;;;;24.48;44.93;100647.16;5038355;28;51091;-55
2021/08/05 06:10:59;;;;;;;;;10.50;10.25;;;;;24.48;44.84;100661.00;5038218;28;51373;-55
2021/08/05 06:13:24;;;;;;;;;7.75;7.50;;;;;24.48;44.86;100657.38;5038336;28;51017;-55
2021/08/05 06:15:49;;;;;;;;;10.75;9.25;;;;;24.48;44.54;100665.69;5037782;28;51000;-56
2021/08/05 06:18:15;;;;;;;;;8.50;8.50;;;;;24.48;45.14;100657.38;5037885;28;54152;-54
2021/08/05 06:20:40;;;;;;;;;12.50;8.00;;;;;24.47;44.86;100662.09;5038051;28;50895;-56
2021/08/05 06:23:08;;;;;;;;;8.25;8.25;;;;;24.48;44.91;100660.16;5038209;28;51011;-56
2021/08/05 06:25:35;;;;;;;;;10.25;7.25;;;;;24.48;44.75;100663.75;5037866;28;51115;-54
2021/08/05 06:28:00;;;;;;;;;8.00;7.25;;;;;24.49;45.07;100670.16;5036478;28;51435;-54
2021/08/05 06:30:26;;;;;;;;;11.00;11.00;;;;;24.48;44.83;100658.22;5038030;28;51018;-54
2021/08/05 06:32:52;;;;;;;;;7.25;7.25;;;;;24.49;44.66;100659.09;5037914;28;50970;-55
2021/08/05 06:35:17;;;;;;;;;10.75;6.00;;;;;24.47;45.06;100655.72;5037399;28;51000;-54
2021/08/05 06:37:43;;;;;;;;;8.50;7.00;;;;;24.47;44.84;100662.09;5037654;28;50996;-55
2021/08/05 06:40:09;;;;;;;;;10.00;6.00;;;;;24.48;44.46;100662.91;5037653;28;51062;-56
2021/08/05 06:42:35;;;;;;;;;5.75;5.50;;;;;24.46;44.72;100656.81;5037731;28;51019;-56
2021/08/05 06:45:02;;;;;;;;;6.25;6.25;;;;;24.47;45.02;100655.72;5037361;28;51046;-55
2021/08/05 06:47:29;;;;;;;;;8.00;7.00;;;;;24.48;44.86;100657.38;5037549;28;50993;-54
2021/08/05 06:49:55;;;;;;;;;9.75;9.00;;;;;24.46;44.83;100651.28;5037543;28;51360;-55
2021/08/05 06:52:20;;;;;;;;;7.00;6.50;;;;;24.47;45.21;100655.72;5037649;28;51410;-55
2021/08/05 06:54:45;;;;;;;;;9.00;7.00;;;;;24.47;44.86;100652.94;5037287;28;51710;-55
2021/08/05 06:57:11;;;;;;;;;9.25;6.75;;;;;24.47;44.71;100653.78;5037710;28;51693;-56
2021/08/05 06:59:36;;;;;;;;;5.50;4.50;;;;;24.47;44.82;100650.19;5035787;28;52057;-54
2021/08/05 07:02:01;;;;;;;;;6.75;6.00;;;;;24.47;44.91;100644.63;5037486;28;51284;-56
2021/08/05 07:04:27;;;;;;;;;5.75;5.00;;;;;24.47;45.01;100656.53;5036801;28;52067;-55
2021/08/05 07:06:52;;;;;;;;;5.00;5.00;;;;;24.47;44.82;100656.53;5037165;28;51021;-56
2021/08/05 07:09:18;;;;;;;;;6.00;4.75;;;;;24.47;44.81;100659.31;5037247;28;51135;-56
2021/08/05 07:11:43;;;;;;;;;7.00;7.00;;;;;24.48;44.70;100657.38;5037372;28;51185;-56
2021/08/05 07:14:09;;;;;;;;;6.00;6.00;;;;;24.47;44.84;100659.31;5036842;28;51790;-55
2021/08/05 07:16:34;;;;;;;;;7.25;7.25;;;;;24.46;44.97;100663.19;5036959;28;51052;-56
2021/08/05 07:18:59;;;;;;;;;7.75;6.25;;;;;24.46;44.84;100657.66;5036650;28;51129;-56
2021/08/05 07:21:25;;;;;;;;;5.75;5.50;;;;;24.47;44.93;100658.47;5037102;28;50983;-55
2021/08/05 07:23:50;;;;;;;;;6.75;5.75;;;;;24.48;44.83;100662.91;5036831;28;51265;-55
2021/08/05 07:26:15;;;;;;;;;6.25;6.25;;;;;24.47;45.09;100655.72;5036277;28;51122;-55
2021/08/05 07:28:41;;;;;;;;;5.00;4.00;;;;;24.47;44.83;100656.53;5036718;28;51098;-54
2021/08/05 07:31:06;;;;;;;;;8.75;6.00;;;;;24.48;45.19;100660.16;5037228;28;51302;-56
2021/08/05 07:33:31;;;;;;;;;6.50;5.75;;;;;24.48;44.92;100662.91;5036378;28;51821;-56
2021/08/05 07:35:57;;;;;;;;;7.00;6.25;;;;;24.47;44.94;100664.03;5036629;28;51074;-55
2021/08/05 07:38:23;;;;;;;;;8.50;6.00;;;;;24.47;44.69;100661.25;5036412;28;51044;-56
2021/08/05 07:40:49;;;;;;;;;6.25;5.00;;;;;24.48;44.75;100665.69;5035790;28;51026;-55
2021/08/05 07:43:14;;;;;;;;;9.00;4.00;;;;;24.48;44.78;100666.53;5036322;28;52167;-56
2021/08/05 07:45:39;;;;;;;;;4.50;4.50;;;;;24.49;44.83;100664.63;5036570;28;51138;-56
2021/08/05 07:48:05;;;;;;;;;6.75;6.00;;;;;24.47;44.84;100662.09;5036047;28;51155;-55
2021/08/05 07:50:30;;;;;;;;;4.00;4.00;;;;;24.48;44.79;100660.16;5036466;28;51376;-56
2021/08/05 07:52:56;;;;;;;;;5.25;5.00;;;;;24.49;44.83;100661.88;5036323;28;51553;-55
2021/08/05 07:55:22;;;;;;;;;9.25;6.75;;;;;24.48;44.86;100658.22;5035975;28;50987;-56
2021/08/05 07:57:47;;;;;;;;;5.00;5.00;;;;;24.49;44.65;100659.09;5036170;28;51050;-54
2021/08/05 08:00:13;;;;;;;;;6.50;6.50;;;;;24.49;44.69;100659.09;5036587;28;51017;-56
2021/08/05 08:02:38;;;;;;;;;5.25;5.25;;;;;24.49;44.86;100653.56;5035864;28;52001;-54
2021/08/05 08:05:04;;;;;;;;;6.25;6.00;;;;;24.50;44.83;100655.22;5036083;28;51054;-57
2021/08/05 08:07:35;;;;;;;;;5.25;5.25;;;;;24.51;44.49;100656.91;5036293;28;51121;-57
2021/08/05 08:10:00;;;;;;;;;6.00;6.00;;;;;24.51;44.66;100653.28;5036357;28;51291;-57
2021/08/05 08:12:26;;;;;;;;;6.75;6.75;;;;;24.51;44.59;100648.59;5035211;28;55547;-57
2021/08/05 08:14:51;;;;;;;;;5.25;5.25;;;;;24.51;44.88;100643.06;5035699;28;51070;-55
2021/08/05 08:17:17;;;;;;;;;6.00;5.50;;;;;24.52;44.52;100643.91;5035856;28;51125;-55
2021/08/05 08:19:42;;;;;;;;;6.25;6.00;;;;;24.52;44.53;100647.50;5035678;28;51058;-56
2021/08/05 08:22:09;;;;;;;;;5.75;5.75;;;;;24.54;44.68;100638.94;5035853;28;51587;-56
2021/08/05 08:24:35;;;;;;;;;6.50;6.50;;;;;24.54;44.70;100641.69;5035588;28;51371;-56
2021/08/05 08:27:00;;;;;;;;;5.75;5.75;;;;;24.54;44.36;100642.53;5034971;28;50904;-56
2021/08/05 08:29:25;;;;;;;;;7.25;6.75;;;;;24.54;44.55;100634.22;5036038;28;51355;-54
2021/08/05 08:31:51;;;;;;;;;7.25;6.75;;;;;24.55;44.32;100629.53;5035696;28;51686;-56
2021/08/05 08:34:16;;;;;;;;;5.00;5.00;;;;;24.55;44.18;100633.13;5035714;28;51105;-56
2021/08/05 08:36:42;;;;;;;;;7.00;5.00;;;;;24.55;44.45;100624.00;5035619;28;51086;-56
2021/08/05 08:39:08;;;;;;;;;6.25;6.00;;;;;24.56;44.16;100625.66;5035696;28;51052;-56
2021/08/05 08:41:34;;;;;;;;;7.50;7.50;;;;;24.56;44.55;100623.72;5035606;28;51063;-56
2021/08/05 08:43:59;;;;;;;;;7.00;5.75;;;;;24.56;44.63;100626.50;5035738;28;51453;-55
2021/08/05 08:46:25;;;;;;;;;5.75;5.00;;;;;24.57;44.57;100628.19;5035746;28;51102;-58
2021/08/05 08:48:53;;;;;;;;;6.75;5.75;;;;;24.58;44.48;100627.06;5035622;28;51248;-57
2021/08/05 08:51:19;;;;;;;;;9.50;6.75;;;;;24.57;44.33;100628.19;5034896;28;51884;-56
2021/08/05 08:53:48;;;;;;;;;5.00;5.00;;;;;24.58;44.57;100621.53;5033873;28;51340;-56
2021/08/05 08:56:14;;;;;;;;;7.00;7.00;;;;;24.59;44.55;100627.91;5035054;28;51073;-55
2021/08/05 08:58:40;;;;;;;;;5.00;5.00;;;;;24.60;44.53;100622.16;5035566;28;51404;-58
2021/08/05 09:01:05;;;;;;;;;4.75;4.75;;;;;24.59;44.57;100612.13;5035004;28;51230;-56
2021/08/05 09:03:30;;;;;;;;;8.25;5.50;;;;;24.59;44.30;100612.13;5035102;28;51139;-54
2021/08/05 09:05:56;;;;;;;;;4.75;4.25;;;;;24.61;44.45;100617.44;5035369;28;51042;-56
2021/08/05 09:08:21;;;;;;;;;8.00;5.00;;;;;24.61;44.32;100626.59;5034917;28;51040;-56
2021/08/05 09:10:47;;;;;;;;;4.25;3.75;;;;;24.61;44.40;100618.28;5034987;28;51923;-56
2021/08/05 09:13:15;;;;;;;;;5.00;4.25;;;;;24.62;44.75;100625.50;5035299;28;51130;-57
2021/08/05 09:15:45;;;;;;;;;5.00;5.00;;;;;24.62;44.50;100619.94;5034911;28;51173;-56
2021/08/05 09:18:34;;;;;;;;;4.00;4.00;;;;;24.63;44.45;100626.34;5035044;28;51192;-55
2021/08/05 09:21:22;;;;;;;;;4.75;4.75;;;;;24.62;44.40;100619.94;5034945;28;51025;-56
2021/08/05 09:23:55;;;;;;;;;4.50;3.75;;;;;24.64;44.50;100623.31;5035110;28;51020;-55
2021/08/05 09:26:23;;;;;;;;;5.00;5.00;;;;;24.64;44.46;100628.84;5034740;28;51141;-56
2021/08/05 09:29:02;;;;;;;;;5.00;5.00;;;;;24.64;44.71;100623.31;5035233;28;51279;-56
2021/08/05 09:31:29;;;;;;;;;4.75;4.75;;;;;24.65;44.72;100618.59;5034798;28;52861;-55
2021/08/05 09:34:02;;;;;;;;;5.00;4.50;;;;;24.65;44.37;100624.97;5034950;28;51320;-56
2021/08/05 09:36:28;;;;;;;;;7.25;5.50;;;;;24.65;44.34;100624.97;5034918;28;51039;-56
2021/08/05 09:38:54;;;;;;;;;7.00;6.00;;;;;24.65;44.44;100624.97;5035300;28;51013;-56
2021/08/05 09:41:19;;;;;;;;;4.75;4.25;;;;;24.68;44.71;100631.94;5034375;28;51036;-56
2021/08/05 09:43:45;;;;;;;;;4.75;4.75;;;;;24.68;44.28;100623.63;5034875;28;51063;-56
2021/08/05 09:46:13;;;;;;;;;6.50;4.00;;;;;24.68;44.27;100620.84;5034706;28;51027;-57
2021/08/05 09:48:44;;;;;;;;;6.50;5.25;;;;;24.69;44.23;100622.53;5033460;28;51035;-55
2021/08/05 09:51:15;;;;;;;;;6.00;6.00;;;;;24.70;44.19;100622.28;5034316;28;50990;-57
2021/08/05 09:53:55;;;;;;;;;5.75;4.75;;;;;24.72;44.35;100609.00;5034731;28;51183;-56
2021/08/05 09:56:21;;;;;;;;;4.25;4.25;;;;;24.74;44.40;100614.28;5034349;28;51223;-56
2021/08/05 09:58:48;;;;;;;;;6.75;6.00;;;;;24.75;44.57;100597.41;5034713;28;51121;-56
2021/08/05 10:01:13;;;;;;;;;4.00;4.00;;;;;24.76;43.97;100599.09;5034469;28;51888;-56
2021/08/05 10:03:39;;;;;;;;;6.25;3.50;;;;;24.78;44.24;100587.75;5035449;28;51145;-56
2021/08/05 10:06:07;;;;;;;;;5.50;4.00;;;;;24.80;44.00;100588.31;5038210;28;51149;-55
2021/08/05 10:08:43;;;;;;;;;5.50;5.50;;;;;24.83;44.09;100585.06;5037957;28;51430;-55
2021/08/05 10:11:09;;;;;;;;;4.75;4.75;;;;;24.84;43.83;100586.72;5037731;28;52814;-56
2021/08/05 10:13:37;;;;;;;;;6.50;5.25;;;;;24.85;44.06;100584.78;5037835;28;51068;-57
2021/08/05 10:16:04;;;;;;;;;6.50;6.00;;;;;24.85;43.93;100584.78;5036803;28;51139;-57
2021/08/05 10:18:37;;;;;;;;;4.75;4.75;;;;;24.85;43.70;100573.72;5037520;28;51047;-55
2021/08/05 10:21:05;;;;;;;;;3.75;3.75;;;;;24.85;44.13;100577.31;5037454;28;51876;-55
2021/08/05 10:23:30;;;;;;;;;6.25;5.00;;;;;24.85;43.96;100580.09;5037845;28;51444;-56
2021/08/05 10:25:59;;;;;;;;;5.75;4.00;;;;;24.86;43.73;100581.75;5033917;28;52146;-55
2021/08/05 10:28:25;;;;;;;;;4.25;4.25;;;;;24.86;43.50;100575.38;5037811;28;50979;-55
2021/08/05 10:30:53;;;;;;;;;5.25;4.50;;;;;24.88;44.07;100570.41;5037570;28;52025;-56
2021/08/05 10:33:19;;;;;;;;;3.50;3.50;;;;;24.88;43.97;100574.03;5036340;28;51227;-57
2021/08/05 10:35:48;;;;;;;;;4.50;4.50;;;;;24.91;43.82;100567.16;5037530;28;51053;-56
2021/08/05 10:38:19;;;;;;;;;5.75;5.25;;;;;24.92;43.90;100568.81;5037746;28;51222;-55
2021/08/05 10:40:47;;;;;;;;;5.25;3.50;;;;;24.93;43.65;100559.41;5036904;28;51054;-55
2021/08/05 10:43:13;;;;;;;;;4.50;4.50;;;;;24.93;43.66;100554.72;5037084;28;51323;-56
2021/08/05 10:45:38;;;;;;;;;4.75;4.00;;;;;24.93;43.88;100553.88;5037450;28;51108;-56
2021/08/05 10:48:06;;;;;;;;;6.00;5.00;;;;;24.93;43.60;100554.72;5037288;28;51227;-56
2021/08/05 10:50:40;;;;;;;;;5.00;5.00;;;;;24.93;43.53;100549.16;5037222;28;52011;-55
2021/08/05 10:53:07;;;;;;;;;4.00;4.00;;;;;24.94;43.67;100544.47;5037275;28;51075;-54
2021/08/05 10:55:36;;;;;;;;;4.75;4.75;;;;;24.94;43.63;100547.22;5037096;28;50988;-57
2021/08/05 10:58:05;;;;;;;;;4.75;4.00;;;;;24.94;43.62;100550.84;5036846;28;51017;-56
2021/08/05 11:00:50;;;;;;;;;5.00;3.25;;;;;24.95;43.52;100546.13;5036758;28;50978;-56
2021/08/05 11:03:30;;;;;;;;;5.50;3.25;;;;;24.94;43.66;100538.91;5036538;28;51308;-56
2021/08/05 11:05:56;;;;;;;;;5.75;3.75;;;;;24.93;43.53;100535.31;5036652;28;51160;-56
2021/08/05 11:08:23;;;;;;;;;4.75;4.50;;;;;24.93;43.51;100532.53;5037007;28;50956;-56
2021/08/05 11:10:48;;;;;;;;;4.75;4.75;;;;;24.92;43.53;100530.88;5036016;28;51051;-56
2021/08/05 11:13:19;;;;;;;;;5.25;5.00;;;;;24.93;43.68;100521.47;5036372;28;51081;-56
2021/08/05 11:15:46;;;;;;;;;4.00;4.00;;;;;24.94;43.53;100519.53;5036411;28;51056;-56
2021/08/05 11:20:41;;;;;;;;;6.25;5.00;;;;;24.94;43.45;100495.41;5035990;28;51188;-56